createdAt,value
2023-02-15T00:00:21.297Z,16.70
2023-02-15T00:02:50.260Z,17.38
2023-02-15T00:05:18.626Z,18.95
2023-02-15T00:07:49.921Z,21.30
2023-02-15T00:10:18.287Z,19.77
2023-02-15T00:12:46.785Z,38.75
2023-02-15T00:15:15.226Z,20.85
2023-02-15T00:17:43.510Z,18.80
2023-02-15T00:20:12.959Z,149.43
2023-02-15T00:22:41.293Z,162.07
2023-02-15T00:25:11.950Z,77.05
2023-02-15T00:27:40.449Z,114.13
2023-02-15T00:30:09.932Z,215.95
2023-02-15T00:32:38.161Z,144.97
2023-02-15T00:35:08.494Z,161.45
2023-02-15T00:37:36.769Z,251.10
2023-02-15T00:40:06.392Z,60.17
2023-02-15T00:42:36.061Z,31.67
2023-02-15T00:45:04.612Z,28.05
2023-02-15T00:47:34.204Z,18.75
2023-02-15T00:50:04.263Z,18.00
2023-02-15T00:52:32.783Z,21.95
2023-02-15T00:55:01.151Z,16.95
2023-02-15T00:57:30.217Z,24.02
2023-02-15T00:59:59.755Z,44.10
2023-02-15T01:02:28.085Z,18.88
2023-02-15T01:04:56.407Z,14.73
2023-02-15T01:07:25.250Z,15.38
2023-02-15T01:09:56.163Z,16.27
2023-02-15T01:12:25.003Z,21.33
2023-02-15T01:14:53.490Z,14.25
2023-02-15T01:17:23.083Z,15.68
2023-02-15T01:19:52.257Z,13.15
2023-02-15T01:22:20.964Z,13.07
2023-02-15T01:24:51.482Z,13.85
2023-02-15T01:27:20.689Z,14.38
2023-02-15T01:29:49.406Z,13.52
2023-02-15T01:32:17.608Z,18.25
2023-02-15T01:34:47.297Z,14.40
2023-02-15T01:37:18.691Z,14.80
2023-02-15T01:39:46.979Z,16.85
2023-02-15T01:42:15.179Z,22.08
2023-02-15T01:44:52.541Z,24.02
2023-02-15T01:50:04.154Z,14.30
2023-02-15T01:52:32.640Z,12.55
2023-02-15T01:55:01.294Z,14.63
2023-02-15T01:57:31.190Z,17.15
2023-02-15T02:00:03.511Z,22.88
2023-02-15T02:02:33.299Z,20.65
2023-02-15T02:05:10.305Z,20.70
2023-02-15T02:07:42.170Z,32.77
2023-02-15T02:10:14.119Z,18.10
2023-02-15T02:12:45.979Z,17.65
2023-02-15T02:15:16.562Z,19.58
2023-02-15T02:17:54.039Z,26.45
2023-02-15T02:20:43.848Z,19.35
2023-02-15T02:23:32.448Z,16.13
2023-02-15T02:26:48.564Z,18.00
2023-02-15T02:29:55.841Z,27.33
2023-02-15T02:33:24.226Z,21.67
2023-02-15T02:36:03.871Z,46.47
2023-02-15T02:38:46.024Z,18.30
2023-02-15T02:41:22.668Z,19.00
2023-02-15T02:43:56.909Z,23.98
2023-02-15T02:46:32.471Z,26.73
2023-02-15T02:49:00.875Z,35.65
2023-02-15T02:51:30.362Z,57.57
2023-02-15T02:54:02.994Z,43.90
2023-02-15T02:56:35.897Z,33.22
2023-02-15T02:59:09.358Z,23.47
2023-02-15T03:01:41.872Z,21.50
2023-02-15T03:04:14.460Z,19.73
2023-02-15T03:06:50.644Z,18.15
2023-02-15T03:09:23.760Z,18.50
2023-02-15T03:11:52.859Z,18.17
2023-02-15T03:14:21.584Z,14.60
2023-02-15T03:16:52.712Z,14.73
2023-02-15T03:19:25.010Z,12.00
2023-02-15T03:22:04.798Z,14.90
2023-02-15T03:24:37.854Z,12.88
2023-02-15T03:27:08.929Z,15.25
2023-02-15T03:29:40.229Z,16.13
2023-02-15T03:32:13.397Z,14.82
2023-02-15T03:34:41.698Z,15.57
2023-02-15T03:37:21.632Z,17.77
2023-02-15T03:39:55.344Z,14.52
2023-02-15T03:42:27.760Z,14.27
2023-02-15T03:45:01.731Z,20.67
2023-02-15T03:47:37.526Z,15.65
2023-02-15T03:50:30.795Z,17.52
2023-02-15T03:53:03.471Z,22.92
2023-02-15T03:55:31.902Z,15.55
2023-02-15T03:58:17.485Z,16.05
2023-02-15T04:01:05.261Z,23.88
2023-02-15T04:03:38.865Z,20.63
2023-02-15T04:06:07.707Z,20.48
2023-02-15T04:08:54.520Z,70.27
2023-02-15T04:11:25.993Z,61.57
2023-02-15T04:13:57.574Z,53.17
2023-02-15T04:16:26.134Z,23.60
2023-02-15T04:19:14.853Z,62.80
2023-02-15T04:22:00.458Z,40.77
2023-02-15T04:24:48.154Z,23.50
2023-02-15T04:27:17.876Z,14.67
2023-02-15T04:29:47.129Z,13.80
2023-02-15T04:32:15.530Z,17.53
2023-02-15T04:34:43.738Z,21.88
2023-02-15T04:37:12.350Z,13.05
2023-02-15T04:39:42.093Z,28.75
2023-02-15T04:42:11.022Z,13.10
2023-02-15T04:44:39.285Z,17.10
2023-02-15T04:47:07.498Z,28.20
2023-02-15T04:49:36.274Z,19.25
2023-02-15T04:52:04.747Z,15.45
2023-02-15T04:54:34.245Z,21.92
2023-02-15T04:57:04.550Z,14.30
2023-02-15T04:59:32.856Z,21.33
2023-02-15T05:02:01.863Z,16.83
2023-02-15T05:04:31.073Z,18.77
2023-02-15T05:06:59.898Z,16.05
2023-02-15T05:09:28.161Z,16.60
2023-02-15T05:11:58.757Z,15.55
2023-02-15T05:14:30.072Z,73.53
2023-02-15T05:17:01.873Z,26.33
2023-02-15T05:19:31.091Z,64.03
2023-02-15T05:21:59.301Z,45.03
2023-02-15T05:24:45.063Z,16.17
2023-02-15T05:27:31.528Z,17.63
2023-02-15T05:30:04.807Z,18.57
2023-02-15T05:32:33.103Z,27.23
2023-02-15T05:35:01.830Z,24.75
2023-02-15T05:37:30.949Z,22.55
2023-02-15T05:39:59.262Z,22.95
2023-02-15T05:42:28.457Z,19.00
2023-02-15T05:44:56.672Z,22.70
2023-02-15T05:47:27.446Z,40.67
2023-02-15T05:49:55.595Z,19.93
2023-02-15T05:52:24.327Z,34.60
2023-02-15T05:54:52.409Z,73.80
2023-02-15T05:57:20.616Z,33.00
2023-02-15T05:59:49.060Z,21.00
2023-02-15T06:02:17.326Z,19.40
2023-02-15T06:04:47.071Z,23.77
2023-02-15T06:07:18.370Z,19.63
2023-02-15T06:09:46.698Z,17.45
2023-02-15T06:12:15.647Z,34.23
2023-02-15T06:14:44.525Z,20.50
2023-02-15T06:17:15.519Z,21.83
2023-02-15T06:19:44.143Z,24.80
2023-02-15T06:22:14.928Z,19.52
2023-02-15T06:24:43.695Z,18.67
2023-02-15T06:27:13.569Z,16.97
2023-02-15T06:29:42.703Z,13.50
2023-02-15T06:32:11.124Z,17.50
2023-02-15T06:34:39.360Z,17.50
2023-02-15T06:37:09.033Z,17.57
2023-02-15T06:39:39.442Z,15.47
2023-02-15T06:42:07.678Z,16.80
2023-02-15T06:44:36.070Z,19.08
2023-02-15T06:47:04.176Z,16.13
2023-02-15T06:49:36.122Z,18.07
2023-02-15T06:52:04.609Z,17.52
2023-02-15T06:54:33.026Z,21.27
2023-02-15T06:57:02.652Z,16.57
2023-02-15T06:59:30.992Z,17.90
2023-02-15T07:01:59.589Z,19.97
2023-02-15T07:04:29.773Z,15.70
2023-02-15T07:06:58.318Z,16.20
2023-02-15T07:09:27.182Z,15.43
2023-02-15T07:12:12.776Z,15.20
2023-02-15T07:14:42.596Z,14.27
2023-02-15T07:17:27.494Z,15.63
2023-02-15T07:19:58.893Z,15.70
2023-02-15T07:22:26.988Z,12.57
2023-02-15T07:24:56.452Z,14.30
2023-02-15T07:27:25.411Z,13.93
2023-02-15T07:29:55.690Z,11.30
2023-02-15T07:32:24.002Z,11.70
2023-02-15T07:34:53.341Z,13.10
2023-02-15T07:37:21.493Z,12.40
2023-02-15T07:39:50.887Z,14.88
2023-02-15T07:42:20.756Z,12.02
2023-02-15T07:44:49.612Z,11.93
2023-02-15T07:47:19.429Z,13.95
2023-02-15T07:49:50.355Z,13.23
2023-02-15T07:52:21.245Z,11.57
2023-02-15T07:54:50.008Z,11.65
2023-02-15T07:57:18.241Z,11.90
2023-02-15T07:59:46.496Z,13.00
2023-02-15T08:02:17.547Z,11.20
2023-02-15T08:04:48.260Z,14.00
2023-02-15T08:07:16.739Z,12.20
2023-02-15T08:09:44.974Z,15.30
2023-02-15T08:12:13.560Z,15.55
2023-02-15T08:14:42.220Z,24.40
2023-02-15T08:17:10.819Z,28.33
2023-02-15T08:19:39.089Z,18.80
2023-02-15T08:22:15.019Z,18.02
2023-02-15T08:24:43.244Z,19.20
2023-02-15T08:27:12.966Z,18.75
2023-02-15T08:29:43.054Z,20.05
2023-02-15T08:32:12.957Z,18.75
2023-02-15T08:34:42.972Z,17.98
2023-02-15T08:37:12.921Z,18.20
2023-02-15T08:39:42.758Z,17.83
2023-02-15T08:42:11.568Z,17.80
2023-02-15T08:44:40.781Z,18.43
2023-02-15T08:47:08.931Z,18.07
2023-02-15T08:49:38.536Z,19.70
2023-02-15T08:52:07.993Z,22.47
2023-02-15T08:54:37.473Z,21.40
2023-02-15T08:57:05.751Z,19.53
2023-02-15T08:59:35.449Z,20.13
2023-02-15T09:02:06.236Z,21.00
2023-02-15T09:04:34.507Z,16.87
2023-02-15T09:07:05.436Z,20.65
2023-02-15T09:09:33.890Z,17.88
2023-02-15T09:12:04.194Z,16.13
2023-02-15T09:14:33.216Z,16.85
2023-02-15T09:17:02.093Z,14.65
2023-02-15T09:19:30.792Z,16.02
2023-02-15T09:21:59.696Z,15.02
2023-02-15T09:24:28.550Z,14.90
2023-02-15T09:26:56.723Z,15.27
2023-02-15T09:29:26.291Z,14.57
2023-02-15T09:31:56.256Z,16.35
2023-02-15T09:34:25.503Z,16.13
2023-02-15T09:36:54.508Z,14.02
2023-02-15T09:39:26.349Z,14.75
2023-02-15T09:42:32.569Z,14.65
2023-02-15T09:45:23.631Z,15.57
2023-02-15T09:48:21.733Z,14.25
2023-02-15T09:51:02.883Z,15.38
2023-02-15T09:53:49.925Z,15.65
2023-02-15T09:56:31.664Z,16.08
2023-02-15T09:59:07.884Z,16.48
2023-02-15T10:01:46.166Z,16.05
2023-02-15T10:04:40.721Z,18.20
2023-02-15T10:07:20.777Z,17.88
2023-02-15T10:10:01.037Z,15.18
2023-02-15T10:12:57.995Z,17.80
2023-02-15T10:15:36.041Z,16.27
2023-02-15T10:18:34.393Z,15.93
2023-02-15T10:21:11.787Z,15.35
2023-02-15T10:24:04.946Z,14.32
2023-02-15T10:26:43.411Z,15.77
2023-02-15T10:29:21.474Z,14.30
2023-02-15T10:31:52.050Z,14.30
2023-02-15T10:34:26.116Z,16.73
2023-02-15T10:37:26.711Z,16.95
2023-02-15T10:40:06.367Z,14.82
2023-02-15T10:42:45.652Z,15.27
2023-02-15T10:45:23.159Z,14.43
2023-02-15T10:48:12.419Z,13.75
2023-02-15T10:50:51.525Z,16.13
2023-02-15T10:53:42.257Z,13.68
2023-02-15T10:56:20.271Z,14.15
2023-02-15T10:59:02.144Z,17.27
2023-02-15T11:01:40.626Z,16.67
2023-02-15T11:04:38.801Z,16.63
2023-02-15T11:07:19.635Z,14.85
2023-02-15T11:09:52.005Z,16.52
2023-02-15T11:12:28.057Z,16.70
2023-02-15T11:15:03.202Z,16.45
2023-02-15T11:17:39.075Z,14.20
2023-02-15T11:20:19.070Z,16.08
2023-02-15T11:22:55.557Z,14.45
2023-02-15T11:25:27.909Z,14.50
2023-02-15T11:27:58.126Z,13.85
2023-02-15T11:30:30.440Z,14.93
2023-02-15T11:33:02.816Z,18.83
2023-02-15T11:35:34.705Z,15.88
2023-02-15T11:38:14.077Z,15.85
2023-02-15T11:40:48.830Z,16.75
2023-02-15T11:43:23.850Z,16.80
2023-02-15T11:45:53.000Z,15.85
2023-02-15T11:48:21.224Z,15.63
2023-02-15T11:50:50.142Z,15.65
2023-02-15T11:53:22.629Z,15.02
2023-02-15T11:55:52.927Z,13.85
2023-02-15T11:58:30.277Z,15.07
2023-02-15T12:01:03.971Z,13.98
2023-02-15T12:03:46.376Z,17.30
2023-02-15T12:06:20.960Z,14.88
2023-02-15T12:08:54.449Z,15.35
2023-02-15T12:11:28.730Z,14.57
2023-02-15T12:13:59.093Z,14.32
2023-02-15T12:16:29.058Z,12.52
2023-02-15T12:18:59.110Z,14.82
2023-02-15T12:21:30.714Z,13.55
2023-02-15T12:24:05.916Z,14.23
2023-02-15T12:26:36.680Z,14.93
2023-02-15T12:29:14.774Z,15.57
2023-02-15T12:31:47.120Z,11.88
2023-02-15T12:34:24.741Z,14.57
2023-02-15T12:36:59.030Z,13.48
2023-02-15T12:39:31.097Z,13.52
2023-02-15T12:42:02.853Z,14.50
2023-02-15T12:44:34.001Z,15.55
2023-02-15T12:47:04.767Z,14.68
2023-02-15T12:49:35.079Z,15.52
2023-02-15T12:52:07.732Z,15.05
2023-02-15T12:54:54.403Z,16.25
2023-02-15T12:57:27.857Z,13.00
2023-02-15T12:59:59.023Z,12.40
2023-02-15T13:02:37.359Z,15.90
2023-02-15T13:05:20.949Z,14.27
2023-02-15T13:07:52.567Z,14.95
2023-02-15T13:10:30.856Z,12.88
2023-02-15T13:12:59.596Z,14.75
2023-02-15T13:15:33.064Z,14.10
2023-02-15T13:18:03.079Z,14.68
2023-02-15T13:20:31.969Z,18.92
2023-02-15T13:23:06.096Z,12.98
2023-02-15T13:25:48.262Z,12.65
2023-02-15T13:28:19.505Z,14.48
2023-02-15T13:30:49.895Z,15.25
2023-02-15T13:33:27.183Z,13.32
2023-02-15T13:36:08.635Z,13.10
2023-02-15T13:38:51.495Z,13.90
2023-02-15T13:41:27.703Z,11.85
2023-02-15T13:44:08.291Z,12.50
2023-02-15T13:46:51.096Z,13.77
2023-02-15T13:49:33.281Z,12.75
2023-02-15T13:52:11.784Z,11.25
2023-02-15T13:54:53.008Z,12.10
2023-02-15T13:57:56.035Z,12.45
2023-02-15T14:00:34.171Z,12.95
2023-02-15T14:03:33.637Z,12.55
2023-02-15T14:06:37.036Z,14.45
2023-02-15T14:09:16.863Z,12.20
2023-02-15T14:11:57.997Z,11.40
2023-02-15T14:14:44.097Z,12.02
2023-02-15T14:17:19.125Z,13.90
2023-02-15T14:19:52.198Z,15.20
2023-02-15T14:22:28.184Z,11.55
2023-02-15T14:25:14.667Z,11.55
2023-02-15T14:27:53.960Z,13.27
2023-02-15T14:30:29.240Z,13.88
2023-02-15T14:33:05.057Z,14.07
2023-02-15T14:35:33.413Z,14.23
2023-02-15T14:38:09.086Z,13.20
2023-02-15T14:41:02.168Z,14.20
2023-02-15T14:43:50.399Z,14.27
2023-02-15T14:46:27.750Z,16.85
2023-02-15T14:48:58.324Z,18.75
2023-02-15T14:52:07.978Z,16.20
2023-02-15T14:54:59.049Z,16.25
2023-02-15T14:57:35.751Z,16.30
2023-02-15T15:00:39.083Z,16.98
2023-02-15T15:03:22.430Z,16.40
2023-02-15T15:05:54.589Z,14.90
2023-02-15T15:08:31.551Z,17.98
2023-02-15T15:11:43.790Z,18.40
2023-02-15T15:14:41.656Z,18.80
2023-02-15T15:17:14.768Z,17.13
2023-02-15T15:20:02.748Z,15.35
2023-02-15T15:22:32.952Z,16.63
2023-02-15T15:25:05.344Z,17.25
2023-02-15T15:27:51.294Z,19.02
2023-02-15T15:31:02.046Z,18.90
2023-02-15T15:34:01.209Z,17.85
2023-02-15T15:37:01.385Z,17.63
2023-02-15T15:40:21.033Z,18.55
2023-02-15T15:43:05.516Z,17.45
2023-02-15T15:46:10.784Z,16.63
2023-02-15T15:48:40.924Z,18.25
2023-02-15T15:51:15.948Z,17.20
2023-02-15T15:53:49.896Z,20.02
2023-02-15T15:56:23.080Z,19.20
2023-02-15T15:58:54.731Z,21.45
2023-02-15T16:01:29.516Z,19.08
2023-02-15T16:03:59.523Z,18.10
2023-02-15T16:06:36.430Z,21.60
2023-02-15T16:09:20.017Z,20.83
2023-02-15T16:11:50.092Z,22.38
2023-02-15T16:14:25.727Z,21.90
2023-02-15T16:16:58.875Z,19.50
2023-02-15T16:19:31.468Z,23.52
2023-02-15T16:22:02.802Z,22.63
2023-02-15T16:24:45.430Z,19.83
2023-02-15T16:27:34.938Z,24.60
2023-02-15T16:30:30.507Z,25.02
2023-02-15T16:33:08.200Z,23.65
2023-02-15T16:35:39.941Z,24.25
2023-02-15T16:38:12.286Z,26.58
2023-02-15T16:40:48.233Z,29.90
2023-02-15T16:43:21.910Z,24.88
2023-02-15T16:45:51.939Z,28.30
2023-02-15T16:48:23.875Z,22.90
2023-02-15T16:50:55.761Z,22.95
2023-02-15T16:53:26.829Z,24.13
2023-02-15T16:56:00.112Z,22.83
2023-02-15T16:58:35.824Z,26.13
2023-02-15T17:01:05.177Z,25.35
2023-02-15T17:03:34.270Z,29.17
2023-02-15T17:06:05.106Z,29.10
2023-02-15T17:08:35.241Z,25.08
2023-02-15T17:11:18.889Z,27.05
2023-02-15T17:14:20.545Z,28.77
2023-02-15T17:16:51.935Z,32.20
2023-02-15T17:19:24.969Z,26.38
2023-02-15T17:21:56.140Z,30.63
2023-02-15T17:24:35.728Z,27.70
2023-02-15T17:27:12.385Z,23.15
2023-02-15T17:29:43.417Z,30.65
2023-02-15T17:32:20.007Z,30.95
2023-02-15T17:34:52.444Z,25.92
2023-02-15T17:37:32.814Z,28.85
2023-02-15T17:40:03.298Z,28.02
2023-02-15T17:42:36.009Z,23.25
2023-02-15T17:45:05.544Z,29.27
2023-02-15T17:47:33.770Z,28.40
2023-02-15T17:50:04.653Z,30.27
2023-02-15T17:52:33.649Z,28.10
2023-02-15T17:55:31.705Z,24.13
2023-02-15T17:58:02.217Z,28.42
2023-02-15T18:00:48.772Z,27.27
2023-02-15T18:03:34.573Z,29.13
2023-02-15T18:06:21.344Z,28.85
2023-02-15T18:09:07.078Z,27.73
2023-02-15T18:11:36.307Z,30.27
2023-02-15T18:14:09.794Z,28.15
2023-02-15T18:16:42.588Z,27.77
2023-02-15T18:19:16.589Z,26.50
2023-02-15T18:21:45.664Z,26.52
2023-02-15T18:24:19.188Z,31.58
2023-02-15T18:26:53.166Z,28.02
2023-02-15T18:29:23.109Z,27.88
2023-02-15T18:31:55.161Z,30.02
2023-02-15T18:34:28.501Z,30.60
2023-02-15T18:36:58.088Z,32.45
2023-02-15T18:39:38.285Z,31.27
2023-02-15T18:42:08.060Z,28.15
2023-02-15T18:44:39.493Z,28.63
2023-02-15T18:47:07.656Z,28.45
2023-02-15T18:49:36.260Z,31.30
2023-02-15T18:52:04.946Z,30.40
2023-02-15T18:54:33.897Z,26.35
2023-02-15T18:57:02.968Z,27.20
2023-02-15T18:59:32.542Z,27.80
2023-02-15T19:02:02.729Z,28.65
2023-02-15T19:04:32.416Z,25.88
2023-02-15T19:07:00.863Z,28.33
2023-02-15T19:09:29.445Z,24.90
2023-02-15T19:11:59.850Z,30.05
2023-02-15T19:14:30.365Z,26.17
2023-02-15T19:17:03.097Z,30.70
2023-02-15T19:19:31.355Z,28.67
2023-02-15T19:22:00.083Z,27.10
2023-02-15T19:24:38.229Z,29.63
2023-02-15T19:27:08.626Z,28.60
2023-02-15T19:29:37.614Z,30.67
2023-02-15T19:32:07.864Z,29.05
2023-02-15T19:34:36.235Z,33.45
2023-02-15T19:37:07.180Z,31.80
2023-02-15T19:39:40.282Z,34.50
2023-02-15T19:42:15.022Z,32.40
2023-02-15T19:44:46.436Z,30.35
2023-02-15T19:47:16.930Z,32.67
2023-02-15T19:49:45.792Z,34.72
2023-02-15T19:52:19.837Z,35.20
2023-02-15T19:54:49.381Z,39.33
2023-02-15T19:57:17.918Z,40.28
2023-02-15T19:59:46.250Z,40.57
2023-02-15T20:02:20.140Z,41.10
2023-02-15T20:04:49.102Z,39.93
2023-02-15T20:07:26.101Z,40.17
2023-02-15T20:09:54.764Z,39.97
2023-02-15T20:12:24.887Z,41.17
2023-02-15T20:14:53.376Z,42.40
2023-02-15T20:17:23.018Z,44.53
2023-02-15T20:19:51.498Z,40.00
2023-02-15T20:22:24.247Z,44.57
2023-02-15T20:24:56.393Z,44.75
2023-02-15T20:27:25.139Z,43.63
2023-02-15T20:29:56.948Z,38.57
2023-02-15T20:32:27.517Z,45.13
2023-02-15T20:34:56.636Z,38.35
2023-02-15T20:37:28.913Z,41.30
2023-02-15T20:39:57.688Z,40.50
2023-02-15T20:42:25.860Z,44.17
2023-02-15T20:44:54.259Z,43.25
2023-02-15T20:47:22.416Z,45.70
2023-02-15T20:49:54.253Z,53.22
2023-02-15T20:52:24.497Z,45.58
2023-02-15T20:54:53.012Z,47.93
2023-02-15T20:57:21.621Z,48.63
2023-02-15T20:59:49.928Z,46.75
2023-02-15T21:02:20.193Z,52.77
2023-02-15T21:04:55.894Z,54.77
2023-02-15T21:07:24.127Z,52.00
2023-02-15T21:09:54.293Z,46.17
2023-02-15T21:12:23.545Z,55.23
2023-02-15T21:14:53.198Z,56.55
2023-02-15T21:17:21.339Z,56.87
2023-02-15T21:19:49.699Z,55.77
2023-02-15T21:22:21.482Z,57.73
2023-02-15T21:24:54.714Z,61.50
2023-02-15T21:27:23.471Z,58.20
2023-02-15T21:29:52.525Z,63.03
2023-02-15T21:32:25.728Z,60.57
2023-02-15T21:34:54.077Z,66.47
2023-02-15T21:37:32.650Z,62.73
2023-02-15T21:40:05.805Z,62.47
2023-02-15T21:42:51.512Z,63.43
2023-02-15T21:45:37.730Z,68.83
2023-02-15T21:48:05.957Z,62.93
2023-02-15T21:50:53.170Z,64.67
2023-02-15T21:53:27.992Z,62.57
2023-02-15T21:55:57.949Z,64.63
2023-02-15T21:58:28.251Z,69.27
2023-02-15T22:00:57.722Z,67.07
2023-02-15T22:03:27.688Z,71.23
2023-02-15T22:05:56.393Z,68.93
2023-02-15T22:08:26.393Z,71.03
2023-02-15T22:10:55.943Z,73.27
2023-02-15T22:13:29.040Z,65.90
2023-02-15T22:15:57.979Z,66.10
2023-02-15T22:18:28.224Z,63.93
2023-02-15T22:20:57.159Z,73.97
2023-02-15T22:23:27.586Z,61.27
2023-02-15T22:25:58.687Z,66.70
2023-02-15T22:28:31.982Z,72.50
2023-02-15T22:31:00.569Z,69.43
2023-02-15T22:33:31.867Z,73.38
2023-02-15T22:36:01.241Z,75.50
2023-02-15T22:38:32.487Z,69.47
2023-02-15T22:41:06.361Z,65.53
2023-02-15T22:43:40.710Z,68.00
2023-02-15T22:46:14.592Z,67.70
2023-02-15T22:48:44.120Z,70.78
2023-02-15T22:51:14.874Z,66.27
2023-02-15T22:53:44.772Z,68.80
2023-02-15T22:56:19.480Z,73.05
2023-02-15T22:58:50.517Z,75.80
2023-02-15T23:01:25.502Z,78.40
2023-02-15T23:03:53.657Z,80.50
2023-02-15T23:06:22.695Z,77.13
2023-02-15T23:08:52.417Z,66.65
2023-02-15T23:11:21.766Z,72.25
2023-02-15T23:13:50.686Z,63.95
2023-02-15T23:16:19.928Z,62.53
2023-02-15T23:18:49.307Z,64.75
2023-02-15T23:21:21.523Z,63.53
2023-02-15T23:23:53.990Z,61.40
2023-02-15T23:26:25.219Z,62.42
2023-02-15T23:28:55.213Z,59.33
2023-02-15T23:31:26.771Z,64.22
2023-02-15T23:33:56.698Z,65.85
2023-02-15T23:36:31.086Z,65.40
2023-02-15T23:39:23.489Z,66.35
2023-02-15T23:41:51.336Z,62.10
2023-02-15T23:44:20.515Z,61.63
2023-02-15T23:46:50.792Z,65.90
2023-02-15T23:49:20.352Z,64.78
2023-02-15T23:51:50.896Z,65.18
2023-02-15T23:54:22.486Z,63.22
2023-02-15T23:56:53.558Z,66.90
2023-02-15T23:59:24.284Z,70.93
